Time;durP1;ratioP1;P1;durP2;ratioP2;P2;SDS_P1;SDS_P2;PMS_P1;PMS_P2;Temp;Humidity;BMP_temperature;BMP_pressure;BME280_temperature;BME280_humidity;BME280_pressure;Samples;Min_cycle;Max_cycle;Signal;HPM_P1;HPM_P2
2022/04/12 00:00:28;;;;;;;8.60;5.47;;;;;;;;;;5032833;28;20033;-69
2022/04/12 00:02:54;;;;;;;6.55;5.38;;;;;;;;;;5032204;28;20080;-69
2022/04/12 00:05:20;;;;;;;8.65;5.75;;;;;;;;;;5030703;28;20041;-69
2022/04/12 00:07:47;;;;;;;10.48;6.00;;;;;;;;;;5032924;28;20060;-69
2022/04/12 00:10:13;;;;;;;10.82;6.00;;;;;;;;;;5031580;28;20049;-69
2022/04/12 00:12:40;;;;;;;9.30;6.45;;;;;;;;;;5031059;28;20021;-69
2022/04/12 00:15:06;;;;;;;11.27;6.85;;;;;;;;;;5001167;28;20116;-70
2022/04/12 00:20:18;;;;;;;8.63;6.35;;;;;;;;;;5022902;28;20046;-69
2022/04/12 00:22:45;;;;;;;10.57;6.25;;;;;;;;;;5031706;28;20033;-69
2022/04/12 00:25:11;;;;;;;10.82;6.95;;;;;;;;;;5032155;28;20038;-69
2022/04/12 00:27:38;;;;;;;11.57;6.75;;;;;;;;;;5014532;28;20061;-70
2022/04/12 00:30:05;;;;;;;12.70;6.97;;;;;;;;;;5019395;28;20037;-69
2022/04/12 00:32:31;;;;;;;11.27;6.40;;;;;;;;;;5031719;28;20108;-69
2022/04/12 00:34:57;;;;;;;9.43;6.47;;;;;;;;;;5032057;28;20032;-69
2022/04/12 00:37:23;;;;;;;9.10;6.63;;;;;;;;;;5032344;28;20083;-69
2022/04/12 00:39:49;;;;;;;9.50;6.65;;;;;;;;;;5029035;28;20385;-69
2022/04/12 00:42:15;;;;;;;11.80;7.03;;;;;;;;;;5032056;28;20490;-70
2022/04/12 00:44:41;;;;;;;10.85;6.55;;;;;;;;;;5031872;28;20029;-70
2022/04/12 00:47:07;;;;;;;10.45;7.07;;;;;;;;;;5038064;28;20033;-70
2022/04/12 00:49:34;;;;;;;13.70;7.55;;;;;;;;;;5025431;28;20132;-69
2022/04/12 00:52:00;;;;;;;12.05;7.20;;;;;;;;;;5032424;28;20390;-69
2022/04/12 00:54:28;;;;;;;9.70;6.53;;;;;;;;;;5013635;28;20029;-69
2022/04/12 00:56:55;;;;;;;12.52;7.13;;;;;;;;;;5031299;28;20044;-69
2022/04/12 00:59:21;;;;;;;11.50;7.00;;;;;;;;;;5018485;28;20050;-69
2022/04/12 01:01:47;;;;;;;11.65;6.63;;;;;;;;;;5026350;28;20063;-70
2022/04/12 01:04:13;;;;;;;9.63;6.95;;;;;;;;;;5025592;28;20064;-70
2022/04/12 01:06:39;;;;;;;14.68;7.80;;;;;;;;;;5019488;28;20025;-70
2022/04/12 01:09:05;;;;;;;10.48;7.32;;;;;;;;;;5031110;28;20065;-70
2022/04/12 01:11:33;;;;;;;9.85;6.00;;;;;;;;;;5031174;28;20057;-70
2022/04/12 01:14:00;;;;;;;14.40;6.43;;;;;;;;;;5013888;28;20600;-69
2022/04/12 01:16:26;;;;;;;11.82;6.32;;;;;;;;;;5029752;28;20044;-69
2022/04/12 01:18:52;;;;;;;10.63;7.18;;;;;;;;;;5030443;28;20041;-69
2022/04/12 01:21:18;;;;;;;11.23;7.20;;;;;;;;;;5030038;28;20124;-69
2022/04/12 01:24:03;;;;;;;12.18;7.05;;;;;;;;;;5030677;28;20030;-69
2022/04/12 01:26:30;;;;;;;16.70;7.22;;;;;;;;;;5020749;28;20022;-69
2022/04/12 01:28:56;;;;;;;12.68;7.35;;;;;;;;;;5030832;28;20465;-69
2022/04/12 01:31:24;;;;;;;14.85;6.82;;;;;;;;;;5029835;28;20409;-69
2022/04/12 01:33:50;;;;;;;10.73;7.32;;;;;;;;;;5031843;28;20025;-69
2022/04/12 01:36:16;;;;;;;14.10;6.97;;;;;;;;;;5029883;28;20807;-69
2022/04/12 01:38:42;;;;;;;10.65;7.13;;;;;;;;;;5025156;28;20030;-69
2022/04/12 01:41:08;;;;;;;10.30;6.78;;;;;;;;;;5023234;28;20525;-69
2022/04/12 01:43:35;;;;;;;17.10;8.00;;;;;;;;;;5030848;28;20417;-69
2022/04/12 01:46:01;;;;;;;13.45;8.35;;;;;;;;;;5031429;28;20033;-69
2022/04/12 01:48:27;;;;;;;10.63;7.07;;;;;;;;;;5025155;28;20033;-69
2022/04/12 01:50:53;;;;;;;10.55;7.15;;;;;;;;;;5028602;28;20041;-69
2022/04/12 01:53:19;;;;;;;13.10;7.65;;;;;;;;;;5030960;28;20025;-69
2022/04/12 01:55:46;;;;;;;14.88;7.72;;;;;;;;;;5024655;28;20034;-69
2022/04/12 01:58:12;;;;;;;9.95;7.40;;;;;;;;;;5022175;28;20380;-69
2022/04/12 02:00:38;;;;;;;14.63;7.78;;;;;;;;;;5031448;28;20492;-69
2022/04/12 02:03:04;;;;;;;12.30;7.45;;;;;;;;;;5028334;28;20109;-69
2022/04/12 02:05:31;;;;;;;10.82;8.27;;;;;;;;;;5029786;28;20080;-69
2022/04/12 02:07:57;;;;;;;12.93;7.80;;;;;;;;;;5029831;28;20025;-69
2022/04/12 02:10:23;;;;;;;13.55;7.75;;;;;;;;;;5030010;28;20066;-69
2022/04/12 02:12:50;;;;;;;12.35;7.43;;;;;;;;;;5006769;28;20408;-69
2022/04/12 02:15:16;;;;;;;14.30;8.35;;;;;;;;;;5038079;28;20128;-69
2022/04/12 02:17:42;;;;;;;11.88;8.40;;;;;;;;;;5027899;28;20030;-69
2022/04/12 02:20:08;;;;;;;12.35;7.57;;;;;;;;;;5030506;28;20546;-69
2022/04/12 02:22:35;;;;;;;12.70;7.72;;;;;;;;;;5024440;28;20068;-69
2022/04/12 02:25:01;;;;;;;13.88;8.52;;;;;;;;;;5030462;28;20094;-69
2022/04/12 02:27:27;;;;;;;13.30;7.72;;;;;;;;;;5014512;28;20033;-70
2022/04/12 02:29:53;;;;;;;14.57;8.60;;;;;;;;;;5028089;28;20042;-69
2022/04/12 02:32:19;;;;;;;12.07;7.93;;;;;;;;;;5032446;28;20374;-69
2022/04/12 02:34:45;;;;;;;12.75;8.30;;;;;;;;;;5034872;28;20029;-69
2022/04/12 02:37:11;;;;;;;12.45;7.65;;;;;;;;;;5033333;28;20428;-70
2022/04/12 02:39:37;;;;;;;11.70;7.60;;;;;;;;;;5034574;28;20029;-69
2022/04/12 02:42:04;;;;;;;11.85;8.30;;;;;;;;;;5033406;28;20037;-69
2022/04/12 02:44:30;;;;;;;12.00;7.70;;;;;;;;;;5033672;28;20415;-69
2022/04/12 02:46:56;;;;;;;13.32;9.52;;;;;;;;;;5025039;28;20422;-70
2022/04/12 02:49:22;;;;;;;10.50;7.97;;;;;;;;;;5032099;28;20116;-69
2022/04/12 02:51:50;;;;;;;13.07;8.05;;;;;;;;;;5034350;28;20068;-69
2022/04/12 02:54:16;;;;;;;11.30;8.13;;;;;;;;;;5032703;28;20030;-69
2022/04/12 02:56:42;;;;;;;11.38;7.75;;;;;;;;;;5033279;28;20049;-69
2022/04/12 02:59:08;;;;;;;12.57;8.00;;;;;;;;;;5034203;28;20433;-69
2022/04/12 03:01:34;;;;;;;13.18;8.77;;;;;;;;;;5033908;28;20037;-69
2022/04/12 03:04:00;;;;;;;12.10;7.72;;;;;;;;;;5021372;28;20037;-70
2022/04/12 03:06:27;;;;;;;11.55;8.05;;;;;;;;;;5032392;28;20351;-69
2022/04/12 03:08:53;;;;;;;14.40;8.35;;;;;;;;;;5029899;28;20104;-69
2022/04/12 03:11:19;;;;;;;12.73;9.20;;;;;;;;;;5033459;28;20049;-70
2022/04/12 03:13:45;;;;;;;14.45;8.25;;;;;;;;;;5033940;28;20022;-69
2022/04/12 03:16:11;;;;;;;12.77;8.68;;;;;;;;;;5036714;28;20045;-69
2022/04/12 03:18:37;;;;;;;14.25;8.45;;;;;;;;;;5023066;28;20030;-70
2022/04/12 03:21:03;;;;;;;16.95;8.48;;;;;;;;;;5024491;28;20188;-69
2022/04/12 03:23:29;;;;;;;12.43;7.93;;;;;;;;;;5032692;28;20045;-69
2022/04/12 03:25:55;;;;;;;12.15;8.32;;;;;;;;;;5034202;28;20032;-69
2022/04/12 03:28:21;;;;;;;12.18;8.23;;;;;;;;;;5033649;28;20044;-69
2022/04/12 03:30:47;;;;;;;12.60;8.05;;;;;;;;;;5032817;28;20034;-69
2022/04/12 03:33:13;;;;;;;15.48;8.82;;;;;;;;;;5027582;28;20477;-70
2022/04/12 03:35:39;;;;;;;15.38;8.13;;;;;;;;;;5033570;28;20034;-70
2022/04/12 03:38:05;;;;;;;13.70;8.80;;;;;;;;;;5032336;28;20029;-70
2022/04/12 03:40:32;;;;;;;16.17;8.27;;;;;;;;;;5030240;28;20045;-70
2022/04/12 03:43:01;;;;;;;16.25;8.65;;;;;;;;;;5033729;28;20033;-70
2022/04/12 03:45:28;;;;;;;12.65;8.57;;;;;;;;;;5033539;28;20036;-69
2022/04/12 03:47:54;;;;;;;11.63;8.45;;;;;;;;;;5025333;28;20030;-70
2022/04/12 03:50:20;;;;;;;11.85;8.27;;;;;;;;;;5029167;28;20071;-69
2022/04/12 03:52:46;;;;;;;12.35;8.32;;;;;;;;;;5033195;28;20488;-69
2022/04/12 03:55:12;;;;;;;14.13;8.68;;;;;;;;;;5030738;28;20038;-69
2022/04/12 03:57:39;;;;;;;11.30;8.48;;;;;;;;;;5026840;28;20021;-69
2022/04/12 04:00:09;;;;;;;14.25;8.30;;;;;;;;;;5025029;28;20052;-69
2022/04/12 04:02:35;;;;;;;12.68;8.43;;;;;;;;;;5015638;28;20053;-69
2022/04/12 04:05:01;;;;;;;13.27;8.70;;;;;;;;;;5032034;28;20029;-69
2022/04/12 04:07:27;;;;;;;13.80;9.18;;;;;;;;;;5032668;28;20057;-70
2022/04/12 04:09:54;;;;;;;11.93;8.75;;;;;;;;;;5031897;28;20040;-69
2022/04/12 04:12:20;;;;;;;13.45;9.18;;;;;;;;;;5021921;28;20046;-69
2022/04/12 04:14:47;;;;;;;10.63;7.85;;;;;;;;;;5027364;28;20041;-69
2022/04/12 04:17:13;;;;;;;12.18;8.95;;;;;;;;;;5033051;28;20098;-70
2022/04/12 04:19:39;;;;;;;17.70;8.35;;;;;;;;;;5030480;28;20087;-69
2022/04/12 04:22:05;;;;;;;14.40;9.43;;;;;;;;;;5013023;28;20124;-68
2022/04/12 04:24:32;;;;;;;12.88;8.43;;;;;;;;;;5026902;28;20029;-68
2022/04/12 04:26:58;;;;;;;13.20;9.07;;;;;;;;;;5027185;28;20034;-69
2022/04/12 04:29:27;;;;;;;14.77;9.15;;;;;;;;;;5026680;28;20040;-69
2022/04/12 04:31:54;;;;;;;13.27;7.78;;;;;;;;;;5044942;28;20029;-69
2022/04/12 04:34:20;;;;;;;14.20;9.70;;;;;;;;;;5032648;28;20029;-68
2022/04/12 04:36:46;;;;;;;23.48;13.85;;;;;;;;;;5028613;28;20116;-69
2022/04/12 04:39:12;;;;;;;29.60;17.98;;;;;;;;;;5034248;28;20033;-68
2022/04/12 04:41:38;;;;;;;17.30;10.52;;;;;;;;;;5026355;28;20632;-69
2022/04/12 04:44:04;;;;;;;17.80;8.90;;;;;;;;;;5029675;28;20501;-68
2022/04/12 04:46:30;;;;;;;15.55;9.48;;;;;;;;;;5031446;28;20029;-68
2022/04/12 04:48:56;;;;;;;13.10;8.43;;;;;;;;;;5031125;28;20033;-68
2022/04/12 04:51:22;;;;;;;22.02;8.57;;;;;;;;;;5029109;28;20041;-68
2022/04/12 04:53:57;;;;;;;16.73;9.18;;;;;;;;;;5032038;28;20109;-68
2022/04/12 04:56:23;;;;;;;16.90;8.85;;;;;;;;;;5031322;28;20030;-68
2022/04/12 04:58:49;;;;;;;10.57;8.02;;;;;;;;;;5031993;28;20061;-68
2022/04/12 05:01:15;;;;;;;11.38;8.38;;;;;;;;;;5031457;28;20033;-68
2022/04/12 05:03:41;;;;;;;21.67;12.63;;;;;;;;;;5025552;28;20036;-68
2022/04/12 05:06:07;;;;;;;19.23;10.32;;;;;;;;;;5019453;28;20021;-69
2022/04/12 05:08:33;;;;;;;14.95;9.65;;;;;;;;;;5031531;28;20036;-69
2022/04/12 05:10:59;;;;;;;10.98;8.02;;;;;;;;;;5008000;28;20033;-69
2022/04/12 05:13:25;;;;;;;12.95;8.70;;;;;;;;;;5031878;28;20034;-69
2022/04/12 05:15:51;;;;;;;13.75;8.80;;;;;;;;;;5031540;28;20032;-69
2022/04/12 05:18:17;;;;;;;11.38;8.00;;;;;;;;;;5030590;28;20045;-69
2022/04/12 05:20:43;;;;;;;11.20;8.32;;;;;;;;;;5028482;28;20049;-70
2022/04/12 05:23:09;;;;;;;14.60;8.10;;;;;;;;;;5029346;28;20117;-70
2022/04/12 05:25:36;;;;;;;13.98;8.60;;;;;;;;;;4993036;28;20425;-70
2022/04/12 05:28:02;;;;;;;15.90;8.63;;;;;;;;;;5029926;28;20036;-70
2022/04/12 05:30:29;;;;;;;14.30;8.15;;;;;;;;;;5009438;28;20033;-70
2022/04/12 05:32:55;;;;;;;12.48;8.18;;;;;;;;;;5028623;28;20017;-70
2022/04/12 05:35:21;;;;;;;13.07;8.50;;;;;;;;;;5031235;28;20035;-69
2022/04/12 05:37:52;;;;;;;13.25;8.13;;;;;;;;;;5020827;28;20100;-69
2022/04/12 05:40:18;;;;;;;14.63;8.70;;;;;;;;;;5026698;28;20469;-69
2022/04/12 05:42:44;;;;;;;14.13;8.13;;;;;;;;;;5029162;28;20037;-69
2022/04/12 05:45:11;;;;;;;13.95;8.57;;;;;;;;;;5031413;28;20083;-69
2022/04/12 05:47:41;;;;;;;10.93;7.80;;;;;;;;;;5031230;28;20081;-69
2022/04/12 05:50:07;;;;;;;13.27;8.10;;;;;;;;;;5035491;28;20037;-70
2022/04/12 05:52:33;;;;;;;14.27;7.88;;;;;;;;;;5030663;28;20041;-70
2022/04/12 05:54:59;;;;;;;21.23;13.10;;;;;;;;;;5030161;28;20034;-69
2022/04/12 05:57:25;;;;;;;19.42;10.93;;;;;;;;;;5030524;28;20060;-68
2022/04/12 06:00:00;;;;;;;13.90;7.72;;;;;;;;;;5029678;28;20065;-69
2022/04/12 06:02:26;;;;;;;14.40;7.90;;;;;;;;;;5017859;28;20034;-69
2022/04/12 06:04:52;;;;;;;10.77;7.43;;;;;;;;;;5035021;28;20043;-69
2022/04/12 06:07:18;;;;;;;11.48;7.55;;;;;;;;;;5035151;28;20120;-69
2022/04/12 06:09:44;;;;;;;11.60;7.53;;;;;;;;;;5032819;28;20038;-69
2022/04/12 06:12:10;;;;;;;19.60;12.50;;;;;;;;;;5034372;28;20054;-70
2022/04/12 06:14:36;;;;;;;26.48;12.00;;;;;;;;;;5035193;28;20052;-70
2022/04/12 06:17:02;;;;;;;17.63;7.70;;;;;;;;;;5035298;28;20030;-70
2022/04/12 06:19:29;;;;;;;11.35;7.18;;;;;;;;;;5038159;28;20039;-70
2022/04/12 06:21:55;;;;;;;12.15;8.05;;;;;;;;;;5034362;28;20025;-69
2022/04/12 06:24:21;;;;;;;10.75;7.43;;;;;;;;;;5015294;28;20025;-69
2022/04/12 06:26:47;;;;;;;12.77;8.23;;;;;;;;;;5034227;28;20092;-70
2022/04/12 06:29:13;;;;;;;9.35;7.18;;;;;;;;;;5031064;28;20037;-69
2022/04/12 06:31:39;;;;;;;9.80;7.45;;;;;;;;;;5034351;28;20342;-69
2022/04/12 06:34:05;;;;;;;12.70;8.27;;;;;;;;;;5010622;28;20038;-70
2022/04/12 06:36:31;;;;;;;11.68;7.63;;;;;;;;;;5031465;28;20044;-70
2022/04/12 06:38:57;;;;;;;11.75;7.38;;;;;;;;;;5043324;28;20119;-70
2022/04/12 06:41:24;;;;;;;10.93;7.10;;;;;;;;;;5033998;28;20037;-70
2022/04/12 06:43:50;;;;;;;9.50;7.60;;;;;;;;;;5034985;28;20029;-70
2022/04/12 06:46:16;;;;;;;12.50;8.30;;;;;;;;;;5015872;28;20209;-70
2022/04/12 06:48:42;;;;;;;10.00;7.85;;;;;;;;;;5014971;28;20030;-70
2022/04/12 06:51:08;;;;;;;10.85;7.20;;;;;;;;;;5034444;28;20045;-70
2022/04/12 06:53:34;;;;;;;10.38;7.18;;;;;;;;;;5034280;28;20052;-70
2022/04/12 06:56:01;;;;;;;10.45;7.15;;;;;;;;;;5029180;28;20040;-70
2022/04/12 06:58:27;;;;;;;11.13;7.68;;;;;;;;;;5018102;28;20041;-70
2022/04/12 07:00:53;;;;;;;12.15;8.00;;;;;;;;;;5018263;28;20038;-70
2022/04/12 07:03:20;;;;;;;11.77;6.82;;;;;;;;;;5030382;28;20040;-70
2022/04/12 07:05:49;;;;;;;12.60;7.53;;;;;;;;;;5029552;28;20462;-70
2022/04/12 07:08:15;;;;;;;11.10;7.63;;;;;;;;;;5032050;28;20381;-70
2022/04/12 07:10:42;;;;;;;10.52;7.32;;;;;;;;;;5036036;28;20038;-70
2022/04/12 07:13:09;;;;;;;13.80;6.95;;;;;;;;;;5029285;28;20056;-70
2022/04/12 07:15:35;;;;;;;14.15;7.97;;;;;;;;;;5032588;28;20078;-70
2022/04/12 07:18:01;;;;;;;11.57;6.85;;;;;;;;;;5028324;28;20021;-71
2022/04/12 07:20:27;;;;;;;15.70;10.95;;;;;;;;;;5026076;28;20037;-70
2022/04/12 07:22:53;;;;;;;23.13;16.17;;;;;;;;;;5022988;28;20084;-70
2022/04/12 07:25:19;;;;;;;10.25;7.32;;;;;;;;;;5007292;28;20064;-70
2022/04/12 07:27:45;;;;;;;8.15;6.60;;;;;;;;;;5027520;28;20362;-70
2022/04/12 07:30:12;;;;;;;14.05;7.70;;;;;;;;;;5028292;28;20042;-70
2022/04/12 07:32:39;;;;;;;10.38;7.47;;;;;;;;;;5028644;28;20018;-71
2022/04/12 07:35:06;;;;;;;8.65;6.22;;;;;;;;;;5032116;28;20017;-71
2022/04/12 07:37:32;;;;;;;13.77;8.15;;;;;;;;;;5030596;28;20057;-71
2022/04/12 07:39:58;;;;;;;9.55;6.68;;;;;;;;;;5028519;28;20512;-71
2022/04/12 07:42:24;;;;;;;13.85;7.22;;;;;;;;;;5020983;28;21398;-71
2022/04/12 07:44:51;;;;;;;11.32;7.03;;;;;;;;;;4998212;28;20117;-69
2022/04/12 07:47:17;;;;;;;10.93;6.45;;;;;;;;;;5030565;28;20021;-69
2022/04/12 07:49:43;;;;;;;9.63;6.70;;;;;;;;;;5032839;28;20071;-69
2022/04/12 07:52:09;;;;;;;14.18;6.50;;;;;;;;;;5031527;28;20095;-69
2022/04/12 07:54:35;;;;;;;9.27;6.50;;;;;;;;;;5017938;28;20028;-69
2022/04/12 07:57:01;;;;;;;9.70;6.65;;;;;;;;;;5029682;28;20018;-69
2022/04/12 07:59:28;;;;;;;11.77;6.25;;;;;;;;;;5024656;28;20033;-69
2022/04/12 08:01:54;;;;;;;8.88;6.10;;;;;;;;;;5036958;28;20421;-69
2022/04/12 08:04:20;;;;;;;14.30;6.15;;;;;;;;;;5025703;28;20026;-69
2022/04/12 08:06:46;;;;;;;9.10;6.32;;;;;;;;;;5032573;28;20057;-70
2022/04/12 08:09:12;;;;;;;9.52;6.32;;;;;;;;;;5032116;28;20038;-70
2022/04/12 08:11:38;;;;;;;8.02;6.28;;;;;;;;;;5032982;28;20065;-69
2022/04/12 08:14:04;;;;;;;8.90;6.63;;;;;;;;;;5031364;28;20029;-69
2022/04/12 08:16:30;;;;;;;8.85;6.38;;;;;;;;;;5031383;28;20041;-69
2022/04/12 08:18:56;;;;;;;10.88;6.82;;;;;;;;;;5032090;28;20033;-69
2022/04/12 08:21:32;;;;;;;9.27;6.15;;;;;;;;;;5018034;28;20026;-69
2022/04/12 08:23:58;;;;;;;11.10;6.75;;;;;;;;;;5027032;28;20040;-71
2022/04/12 08:26:24;;;;;;;9.75;6.35;;;;;;;;;;5013306;28;20370;-72
2022/04/12 08:28:51;;;;;;;10.07;6.80;;;;;;;;;;5032207;28;20084;-71
2022/04/12 08:31:17;;;;;;;9.50;6.20;;;;;;;;;;5026067;28;20030;-71
2022/04/12 08:33:43;;;;;;;20.67;14.90;;;;;;;;;;4992573;28;20105;-71
2022/04/12 08:36:09;;;;;;;12.73;7.35;;;;;;;;;;5024574;28;20033;-75
2022/04/12 08:38:35;;;;;;;8.82;6.38;;;;;;;;;;5010836;28;20053;-72
2022/04/12 08:41:02;;;;;;;9.60;6.45;;;;;;;;;;5029464;28;20029;-69
2022/04/12 08:43:29;;;;;;;12.27;6.70;;;;;;;;;;5016838;28;20042;-69
2022/04/12 08:45:56;;;;;;;8.48;6.45;;;;;;;;;;5025569;28;20108;-68
2022/04/12 08:48:23;;;;;;;10.50;6.20;;;;;;;;;;5013981;28;20037;-69
2022/04/12 08:50:49;;;;;;;15.63;7.35;;;;;;;;;;5033787;28;20029;-70
2022/04/12 08:53:18;;;;;;;9.60;6.80;;;;;;;;;;5030695;28;20525;-68
2022/04/12 08:55:45;;;;;;;9.77;7.03;;;;;;;;;;5031181;28;20039;-70
2022/04/12 08:58:11;;;;;;;8.05;6.68;;;;;;;;;;5031064;28;20033;-69
2022/04/12 09:00:37;;;;;;;9.63;6.68;;;;;;;;;;5030395;28;20384;-69
2022/04/12 09:03:04;;;;;;;9.35;6.22;;;;;;;;;;5029714;28;20033;-76
2022/04/12 09:05:32;;;;;;;10.00;7.15;;;;;;;;;;5030703;28;20036;-76
2022/04/12 09:07:59;;;;;;;9.43;5.95;;;;;;;;;;5025462;28;20030;-77
2022/04/12 09:10:45;;;;;;;9.43;7.18;;;;;;;;;;5020128;28;20116;-76
2022/04/12 09:13:12;;;;;;;14.90;7.95;;;;;;;;;;5017004;28;20049;-75
2022/04/12 09:15:44;;;;;;;7.85;6.05;;;;;;;;;;5027576;28;20101;-75
2022/04/12 09:18:11;;;;;;;13.90;7.85;;;;;;;;;;5020751;28;20092;-74
2022/04/12 09:20:37;;;;;;;9.48;7.32;;;;;;;;;;5026931;28;20059;-74
2022/04/12 09:23:03;;;;;;;9.10;6.50;;;;;;;;;;5030155;28;20462;-75
2022/04/12 09:25:29;;;;;;;9.15;6.57;;;;;;;;;;5031350;28;20552;-76
2022/04/12 09:27:55;;;;;;;8.35;6.13;;;;;;;;;;5019003;28;20057;-74
2022/04/12 09:30:22;;;;;;;8.02;5.63;;;;;;;;;;5024151;28;20417;-75
2022/04/12 09:32:51;;;;;;;8.70;6.43;;;;;;;;;;5019038;28;20434;-74
2022/04/12 09:35:17;;;;;;;10.10;6.13;;;;;;;;;;5016737;28;20076;-73
2022/04/12 09:37:44;;;;;;;11.30;6.65;;;;;;;;;;5037193;28;20038;-73
2022/04/12 09:40:14;;;;;;;14.02;6.65;;;19.70;99.90;;;;;;5030870;28;20026;-72
2022/04/12 09:42:49;;;;;;;8.32;5.90;;;;;;;;;;5020398;28;20089;-72
2022/04/12 09:45:26;;;;;;;7.63;5.65;;;;;;;;;;5021566;28;20057;-73
2022/04/12 09:47:53;;;;;;;10.00;6.57;;;;;;;;;;5020563;28;20034;-74
2022/04/12 09:50:26;;;;;;;9.30;6.35;;;;;;;;;;5030521;28;20363;-74
2022/04/12 09:52:54;;;;;;;8.32;6.00;;;;;;;;;;5026772;28;20035;-72
2022/04/12 09:55:34;;;;;;;10.23;7.22;;;;;;;;;;5024490;28;20033;-76
2022/04/12 09:58:02;;;;;;;9.20;6.90;;;20.40;99.90;;;;;;5021688;28;22431;-79
2022/04/12 10:00:30;;;;;;;11.50;7.55;;;;;;;;;;5028275;28;20627;-75
2022/04/12 10:02:57;;;;;;;10.25;6.28;;;;;;;;;;5003052;28;20026;-74
2022/04/12 10:05:23;;;;;;;12.02;6.55;;;;;;;;;;5021097;28;20022;-74
2022/04/12 10:07:49;;;;;;;9.43;6.50;;;;;;;;;;5025714;28;20037;-73
2022/04/12 10:10:19;;;;;;;8.85;6.95;;;;;;;;;;5019312;28;20045;-75
2022/04/12 10:12:45;;;;;;;9.27;6.28;;;;;;;;;;5013230;28;20505;-74
2022/04/12 10:15:11;;;;;;;9.70;6.95;;;;;;;;;;5027116;28;20432;-74
2022/04/12 10:17:37;;;;;;;8.80;6.03;;;;;;;;;;5031164;28;20025;-74
2022/04/12 10:20:04;;;;;;;8.63;5.95;;;;;;;;;;5030452;28;20092;-74
2022/04/12 10:22:30;;;;;;;9.95;6.75;;;;;;;;;;5029746;28;20537;-74
2022/04/12 10:24:57;;;;;;;10.60;6.78;;;;;;;;;;5029689;28;20428;-75
2022/04/12 10:27:23;;;;;;;8.95;6.25;;;;;;;;;;5020292;28;20485;-74
2022/04/12 10:30:07;;;;;;;13.48;6.53;;;;;;;;;;5025454;28;20060;-74
2022/04/12 10:32:33;;;;;;;8.88;6.15;;;;;;;;;;5026865;28;20084;-74
2022/04/12 10:35:00;;;;;;;8.73;6.22;;;;;;;;;;5016068;28;20571;-74
2022/04/12 10:37:26;;;;;;;11.05;5.70;;;;;;;;;;5034578;28;20056;-74
2022/04/12 10:40:06;;;;;;;9.02;6.28;;;;;;;;;;5006519;28;20116;-74
2022/04/12 10:42:33;;;;;;;9.73;6.28;;;;;;;;;;5025764;28;20034;-72
2022/04/12 10:45:01;;;;;;;13.73;8.52;;;;;;;;;;5014058;28;20037;-74
2022/04/12 10:47:29;;;;;;;11.77;7.70;;;;;;;;;;5024343;28;20552;-71
2022/04/12 10:49:56;;;;;;;10.68;6.13;;;;;;;;;;5026510;28;20025;-73
2022/04/12 10:52:32;;;;;;;8.38;6.38;;;23.50;93.90;;;;;;5034748;28;20036;-73
2022/04/12 10:54:58;;;;;;;11.65;6.93;;;;;;;;;;5018960;28;20032;-74
2022/04/12 10:57:26;;;;;;;8.30;6.60;;;;;;;;;;5033245;28;20025;-74
2022/04/12 11:00:02;;;;;;;8.63;5.70;;;;;;;;;;5033142;28;20061;-74
2022/04/12 11:02:29;;;;;;;10.70;6.30;;;;;;;;;;5030750;28;20079;-72
2022/04/12 11:04:55;;;;;;;10.70;6.55;;;;;;;;;;5005522;28;20026;-73
2022/04/12 11:07:33;;;;;;;9.60;6.30;;;23.40;94.10;;;;;;5030903;28;20049;-73
2022/04/12 11:10:11;;;;;;;10.30;6.60;;;23.20;94.10;;;;;;5033439;28;20052;-72
2022/04/12 11:12:41;;;;;;;7.57;6.40;;;;;;;;;;5035860;28;20050;-72
2022/04/12 11:15:24;;;;;;;12.30;5.90;;;;;;;;;;5033358;28;20041;-72
2022/04/12 11:17:50;;;;;;;7.03;5.20;;;;;;;;;;5017101;28;20338;-71
2022/04/12 11:20:23;;;;;;;9.50;5.70;;;;;;;;;;5029989;28;20060;-73
2022/04/12 11:22:56;;;;;;;7.28;5.50;;;;;;;;;;5032421;28;20478;-72
2022/04/12 11:25:22;;;;;;;9.63;6.43;;;;;;;;;;5032397;28;20076;-72
2022/04/12 11:27:58;;;;;;;10.88;6.45;;;;;;;;;;5030702;28;20139;-72
2022/04/12 11:30:25;;;;;;;8.20;5.75;;;;;;;;;;5030620;28;20041;-72
2022/04/12 11:32:53;;;;;;;9.40;5.93;;;;;;;;;;5032980;28;20029;-72
2022/04/12 11:35:28;;;;;;;15.38;6.28;;;;;;;;;;5024755;28;20080;-72
2022/04/12 11:37:55;;;;;;;10.30;5.50;;;;;;;;;;5033156;28;20037;-72
2022/04/12 11:40:25;;;;;;;8.98;5.53;;;;;;;;;;5033820;28;20092;-72
2022/04/12 11:42:51;;;;;;;8.18;5.85;;;;;;;;;;5030962;28;20068;-72
2022/04/12 11:45:17;;;;;;;9.80;5.88;;;;;;;;;;5027675;28;20029;-72
2022/04/12 11:47:46;;;;;;;8.15;5.78;;;;;;;;;;5042055;28;20492;-72
2022/04/12 11:50:16;;;;;;;9.10;5.28;;;;;;;;;;5032917;28;20030;-72
2022/04/12 11:52:42;;;;;;;10.88;6.05;;;;;;;;;;5032315;28;20042;-72
2022/04/12 11:55:08;;;;;;;8.45;5.60;;;;;;;;;;5032746;28;20034;-72
2022/04/12 11:57:34;;;;;;;9.40;6.32;;;;;;;;;;5032621;28;20124;-72
2022/04/12 12:00:01;;;;;;;10.60;5.20;;;;;;;;;;5032615;28;20048;-72
2022/04/12 12:02:28;;;;;;;11.88;5.72;;;;;;;;;;5047046;28;20106;-72
2022/04/12 12:04:56;;;;;;;10.10;5.32;;;;;;;;;;5016622;28;20384;-72
2022/04/12 12:07:22;;;;;;;10.43;4.97;;;;;;;;;;5033108;28;20108;-72
2022/04/12 12:10:15;;;;;;;11.13;6.00;;;21.00;96.30;;;;;;5032848;28;20134;-72
2022/04/12 12:12:45;;;;;;;6.97;5.10;;;;;;;;;;5033573;28;20478;-72
2022/04/12 12:15:13;;;;;;;9.60;5.95;;;;;;;;;;5022979;28;20431;-71
2022/04/12 12:17:40;;;;;;;12.30;6.60;;;;;;;;;;5048000;28;20036;-72
2022/04/12 12:20:07;;;;;;;8.32;6.30;;;;;;;;;;5041470;28;20033;-72
2022/04/12 12:22:37;;;;;;;8.63;5.82;;;;;;;;;;5033226;28;20037;-72
2022/04/12 12:25:03;;;;;;;8.65;6.00;;;;;;;;;;5032246;28;20531;-72
2022/04/12 12:27:29;;;;;;;9.75;6.40;;;;;;;;;;5023288;28;20037;-72
2022/04/12 12:30:06;;;;;;;6.93;5.10;;;;;;;;;;5026114;28;20049;-71
2022/04/12 12:32:33;;;;;;;9.48;5.72;;;;;;;;;;5013398;28;20128;-72
2022/04/12 12:35:06;;;;;;;12.43;5.03;;;;;;;;;;5041093;28;20072;-72
2022/04/12 12:37:32;;;;;;;8.13;5.97;;;;;;;;;;5031077;28;20102;-71
2022/04/12 12:39:58;;;;;;;8.80;6.10;;;;;;;;;;5032546;28;20489;-72
2022/04/12 12:42:24;;;;;;;12.65;5.78;;;;;;;;;;5031391;28;20044;-71
2022/04/12 12:44:50;;;;;;;11.23;5.82;;;;;;;;;;5031129;28;20037;-71
2022/04/12 12:47:16;;;;;;;10.02;5.80;;;;;;;;;;5026246;28;20033;-70
2022/04/12 12:49:42;;;;;;;10.20;6.00;;;;;;;;;;5031945;28;20036;-72
2022/04/12 12:52:10;;;;;;;8.00;5.55;;;;;;;;;;5032245;28;20037;-72
2022/04/12 12:54:36;;;;;;;12.80;6.28;;;;;;;;;;5033262;28;20037;-72
2022/04/12 12:57:03;;;;;;;12.02;6.50;;;;;;;;;;5030816;28;20056;-70
2022/04/12 12:59:30;;;;;;;16.95;7.85;;;;;;;;;;5020964;28;20040;-69
2022/04/12 13:01:56;;;;;;;10.10;6.63;;;;;;;;;;5023417;28;20033;-69
2022/04/12 13:04:26;;;;;;;10.95;6.80;;;;;;;;;;5020804;28;20048;-70
2022/04/12 13:07:06;;;;;;;10.77;6.63;;;;;;;;;;5018186;28;20030;-77
2022/04/12 13:09:33;;;;;;;16.55;10.13;;;;;;;;;;5018988;28;20457;-72
2022/04/12 13:11:59;;;;;;;14.25;6.97;;;;;;;;;;5026227;28;20389;-72
2022/04/12 13:14:25;;;;;;;10.48;6.47;;;;;;;;;;5029606;28;20036;-72
2022/04/12 13:16:51;;;;;;;10.48;6.93;;;;;;;;;;5030426;28;20033;-72
2022/04/12 13:19:27;;;;;;;11.60;6.60;;;;;;;;;;5019400;28;20041;-72
2022/04/12 13:21:53;;;;;;;15.85;7.15;;;;;;;;;;5026907;28;20017;-78
2022/04/12 13:24:20;;;;;;;11.57;7.20;;;;;;;;;;5030086;28;20048;-79
2022/04/12 13:26:46;;;;;;;9.43;6.50;;;;;;;;;;5031239;28;20114;-79
2022/04/12 13:29:12;;;;;;;9.93;7.07;;;;;;;;;;5024417;28;20186;-80
2022/04/12 13:31:38;;;;;;;11.10;6.80;;;;;;;;;;5029231;28;20037;-79
2022/04/12 13:34:04;;;;;;;10.18;7.25;;;;;;;;;;5032067;28;20573;-79
2022/04/12 13:36:30;;;;;;;10.68;7.30;;;;;;;;;;5030574;28;20045;-78
2022/04/12 13:38:56;;;;;;;10.63;7.35;;;;;;;;;;5036756;28;20457;-81
2022/04/12 13:41:22;;;;;;;15.25;7.72;;;;;;;;;;5045264;28;20462;-84
2022/04/12 13:43:48;;;;;;;10.80;7.07;;;;;;;;;;5034525;28;20041;-82
2022/04/12 13:46:14;;;;;;;12.98;7.65;;;;;;;;;;5030802;28;20121;-81
2022/04/12 13:48:41;;;;;;;10.77;7.55;;;;;;;;;;5032631;28;20064;-81
2022/04/12 13:51:09;;;;;;;13.15;8.48;;;;;;;;;;5030343;28;20044;-80
2022/04/12 13:53:35;;;;;;;10.77;7.50;;;;;;;;;;5031803;28;20057;-79
2022/04/12 13:56:01;;;;;;;13.25;7.72;;;;;;;;;;5031746;28;20470;-77
2022/04/12 13:58:27;;;;;;;12.77;7.18;;;;;;;;;;5031509;28;20033;-78
2022/04/12 14:00:54;;;;;;;14.70;7.70;;;;;;;;;;5029322;28;20026;-77
2022/04/12 14:03:20;;;;;;;10.70;6.50;;;;;;;;;;5026036;28;20112;-77
2022/04/12 14:05:46;;;;;;;11.98;8.02;;;;;;;;;;5029603;28;20034;-81
2022/04/12 14:08:12;;;;;;;10.50;6.40;;;;;;;;;;5026474;28;20060;-80
2022/04/12 14:10:40;;;;;;;14.30;7.22;;;;;;;;;;5037105;28;20088;-83
2022/04/12 14:13:06;;;;;;;13.20;7.32;;;;;;;;;;5050845;28;20056;-80
2022/04/12 14:15:32;;;;;;;10.63;6.53;;;;;;;;;;5011313;28;20502;-80
2022/04/12 14:17:59;;;;;;;12.60;8.38;;;;;;;;;;5027580;28;20041;-72
2022/04/12 14:20:25;;;;;;;11.65;7.60;;;;;;;;;;5015932;28;20362;-73
2022/04/12 14:22:52;;;;;;;13.38;8.55;;;;;;;;;;5028599;28;20425;-72
2022/04/12 14:25:18;;;;;;;14.63;7.57;;;;;;;;;;5031705;28;20026;-72
2022/04/12 14:27:44;;;;;;;10.85;7.53;;;;;;;;;;5032735;28;20492;-72
2022/04/12 14:30:10;;;;;;;12.77;7.70;;;;;;;;;;5034681;28;20041;-72
2022/04/12 14:32:36;;;;;;;11.73;7.68;;;;;;;;;;5027866;28;20029;-80